Al Cenac — WDD5445 — position and weather

sailwx.info

Track history (hours):
 
Tides and Currents Weather Stations Pressure Air Temp Water Temp Dewpoint Dewpoint Depression Visibility Wind Speed Wind Dir Waves Ship Positions

Al Cenac

Owner: Caillou Island Towing Co, Inc., Houma, LA. More information available from US FCC via Universal Licensing System and Coast Guard Vessel Documentation Center.

Last reported at 2014-Dec-21 22:25 UTC. Time now 2014-Dec-21 23:08 UTC.
Position N 40°33' W 074°15'.

; draft 10 m.

MMSI: 367158530.

Date/timePositionNaut miles runAvg speedWind from/ knotsBaromVisibWave heightAir tempDewpointWater temp
2014-Dec-21 22:25N 40°33' W 074°15'3 1.6
2014-Dec-21 20:19N 40°36' W 074°12'2 3.0
2014-Dec-21 19:29N 40°38' W 074°12'4 0.9
2014-Dec-21 15:16N 40°39' W 074°07'6 8.3
2014-Dec-21 14:34N 40°41' W 074°00'5 4.6
2014-Dec-21 13:33N 40°45' W 073°57'5 4.3
2014-Dec-21 12:30N 40°42' W 074°00'4 4.2
2014-Dec-21 11:33N 40°45' W 073°58'1 0.4
2014-Dec-21 09:31N 40°46' W 073°57'6 5.7
2014-Dec-21 08:33N 40°41' W 074°02'5 2.6
2014-Dec-21 06:33N 40°39' W 074°08'2 0.5
2014-Dec-21 02:34N 40°39' W 074°10'7 5.8
2014-Dec-21 01:26N 40°33' W 074°15'2 2.3
2014-Dec-21 00:32N 40°31' W 074°15'9 2.9
2014-Dec-20 21:33N 40°39' W 074°09'1 0.2
2014-Dec-20 17:28N 40°38' W 074°08'0 0.0
2014-Dec-20 15:23N 40°38' W 074°08'0 0.1
2014-Dec-20 12:33N 40°39' W 074°07'4 1.4
2014-Dec-20 09:27N 40°36' W 074°12'4 1.0
2014-Dec-20 05:24N 40°38' W 074°08'2 0.5
2014-Dec-20 02:30N 40°39' W 074°10'7 7.6
2014-Dec-20 01:32N 40°33' W 074°15'8 1.1
2014-Dec-19 18:33N 40°39' W 074°09'1 0.4
2014-Dec-19 16:12N 40°38' W 074°08'0 0.0
2014-Dec-19 12:30N 40°38' W 074°08'0 0.0
2014-Dec-19 11:13N 40°38' W 074°08'0 0.0
2014-Dec-19 10:31N 40°38' W 074°08'4 2.0
2014-Dec-19 08:33N 40°40' W 074°03'7 7.3
2014-Dec-19 07:33N 40°46' W 073°57'0 0.0
2014-Dec-19 05:33N 40°46' W 073°57'4 4.1
2014-Dec-19 04:32N 40°42' W 073°60'1 0.9
2014-Dec-19 03:31N 40°41' W 074°00'0 0.0
2014-Dec-19 02:31N 40°41' W 074°00'1 1.5
2014-Dec-19 01:33N 40°43' W 073°59'6 4.5
2014-Dec-19 00:08N 40°48' W 073°54'4 6.4
2014-Dec-18 23:33N 40°45' W 073°58'8 8.3
2014-Dec-18 22:33N 40°39' W 074°05'3 1.0
2014-Dec-18 19:33N 40°38' W 074°09'2 0.4
2014-Dec-18 14:03N 40°38' W 074°12'3 0.8
2014-Dec-18 10:24N 40°38' W 074°08'0 0.0
2014-Dec-18 09:30N 40°38' W 074°08'0 0.0
2014-Dec-18 07:14N 40°39' W 074°08'0 0.7
2014-Dec-18 06:28N 40°39' W 074°07'4 4.5
2014-Dec-18 05:33N 40°37' W 074°12'4 2.0
2014-Dec-18 03:30N 40°33' W 074°14'5 1.5
2014-Dec-18 00:21N 40°38' W 074°12'3 3.8
2014-Dec-17 23:34N 40°39' W 074°08'0 0.3
2014-Dec-17 22:23N 40°38' W 074°08'2 2.0
2014-Dec-17 21:28N 40°39' W 074°05'4 4.5
2014-Dec-17 20:31N 40°39' W 074°11'2 2.5
2014-Dec-17 19:32N 40°38' W 074°08'0 0.0
2014-Dec-17 18:32N 40°38' W 074°08'4 4.0
2014-Dec-17 17:33N 40°40' W 074°03'17 0.9
2014-Dec-16 23:20N 40°56' W 073°55'6 7.6
2014-Dec-16 22:33N 40°50' W 073°58'8 7.7
2014-Dec-16 21:33N 40°43' W 074°01'7 4.8
2014-Dec-16 20:11N 40°38' W 074°08'0 0.1
2014-Dec-16 18:08N 40°38' W 074°08'2 1.9
2014-Dec-16 17:21N 40°38' W 074°10'2 1.6
2014-Dec-16 16:23N 40°38' W 074°08'0 0.0
2014-Dec-16 15:26N 40°38' W 074°08'4 4.3
2014-Dec-16 14:33N 40°37' W 074°12'4 3.2
2014-Dec-16 13:14N 40°33' W 074°15'7 0.4
2014-Dec-15 19:20N 40°38' W 074°09'0 0.4
2014-Dec-15 18:33N 40°38' W 074°09'1 0.6
2014-Dec-15 17:05N 40°38' W 074°08'0 0.0
2014-Dec-15 14:32N 40°38' W 074°08'1 0.5
2014-Dec-15 13:26N 40°39' W 074°07'0 0.1
2014-Dec-15 12:33N 40°39' W 074°07'0 0.3
2014-Dec-15 11:08N 40°38' W 074°08'0 0.0
2014-Dec-15 10:32N 40°38' W 074°08'0 0.0
2014-Dec-15 09:27N 40°38' W 074°08'1 0.5
2014-Dec-15 07:20N 40°39' W 074°07'1 0.6
2014-Dec-15 06:06N 40°39' W 074°06'4 7.5
2014-Dec-15 05:33N 40°39' W 074°11'6 0.9
2014-Dec-14 23:16N 40°33' W 074°14'6 8.4
2014-Dec-14 22:33N 40°39' W 074°10'0 0.4
2014-Dec-14 21:25N 40°39' W 074°10'2 0.6
2014-Dec-14 17:33N 40°39' W 074°07'5 5.2
2014-Dec-14 16:33N 40°40' W 074°00'1 1.2
2014-Dec-14 15:33N 40°41' W 074°01'7 7.1
2014-Dec-14 14:33N 40°47' W 073°56'2 1.5
2014-Dec-14 13:27N 40°48' W 073°54'1 0.8
2014-Dec-14 12:33N 40°47' W 073°55'6 6.4
2014-Dec-14 11:33N 40°42' W 073°60'1 0.9
2014-Dec-14 10:21N 40°41' W 074°00'0 0.0
2014-Dec-14 09:25N 40°41' W 074°00'0 0.0
2014-Dec-14 08:31N 40°41' W 074°00'0 0.0
2014-Dec-14 07:32N 40°41' W 074°00'0 0.0
2014-Dec-14 06:33N 40°41' W 074°00'0 0.0
2014-Dec-14 05:33N 40°41' W 074°00'0 0.0
2014-Dec-14 04:31N 40°41' W 074°00'0 0.0
2014-Dec-14 03:31N 40°41' W 074°00'0 0.0
2014-Dec-14 02:32N 40°41' W 074°00'0 0.0
2014-Dec-14 01:33N 40°41' W 074°00'0 0.0
2014-Dec-14 00:30N 40°41' W 074°00'0 0.0
2014-Dec-13 23:31N 40°41' W 074°00'0 0.0
2014-Dec-13 22:32N 40°41' W 074°00'0 0.0
2014-Dec-13 21:32N 40°41' W 074°00'8 3.8
2014-Dec-13 19:25N 40°48' W 073°54'5 5.9
2014-Dec-13 18:33N 40°44' W 073°58'3 3.1
2014-Dec-13 17:34N 40°41' W 074°00'6 2.7
2014-Dec-13 15:12N 40°38' W 074°08'0 0.0
2014-Dec-13 14:33N 40°38' W 074°08'4 3.5
2014-Dec-13 13:25N 40°42' W 074°07'2 2.8
2014-Dec-13 12:33N 40°40' W 074°08'2 1.6
2014-Dec-13 11:28N 40°38' W 074°08'0 0.0
2014-Dec-13 10:29N 40°38' W 074°08'0 0.0
2014-Dec-13 09:24N 40°38' W 074°08'0 0.0
2014-Dec-13 08:30N 40°38' W 074°08'0 0.0
2014-Dec-13 07:31N 40°38' W 074°08'0 0.0
2014-Dec-13 06:31N 40°38' W 074°08'0 0.0
2014-Dec-13 05:26N 40°38' W 074°08'0 0.0
2014-Dec-13 04:33N 40°38' W 074°08'0 0.0
2014-Dec-13 03:27N 40°38' W 074°08'0 0.0
2014-Dec-13 02:28N 40°38' W 074°08'0 0.0
2014-Dec-13 01:29N 40°38' W 074°08'0 0.0
2014-Dec-13 00:29N 40°38' W 074°08'0 0.0
2014-Dec-12 22:31N 40°38' W 074°08'0 0.0
2014-Dec-12 21:19N 40°38' W 074°08'0 0.0
2014-Dec-12 20:20N 40°38' W 074°08'2 1.8
2014-Dec-12 19:25N 40°39' W 074°10'2 1.5
2014-Dec-12 18:18N 40°38' W 074°08'1 1.3
2014-Dec-12 17:33N 40°38' W 074°09'3 3.4
2014-Dec-12 16:33N 40°39' W 074°05'2 2.3
2014-Dec-12 15:30N 40°38' W 074°08'0 0.0
2014-Dec-12 14:17N 40°38' W 074°08'0 0.0
2014-Dec-12 13:29N 40°38' W 074°08'0 0.0
2014-Dec-12 12:30N 40°38' W 074°08'0 0.0
2014-Dec-12 11:25N 40°38' W 074°08'1 0.6
2014-Dec-12 10:33N 40°39' W 074°07'1 0.6
2014-Dec-12 09:33N 40°39' W 074°06'1 0.6
2014-Dec-12 08:33N 40°39' W 074°06'0 0.0
2014-Dec-12 06:11N 40°39' W 074°06'0 0.0
2014-Dec-12 05:23N 40°39' W 074°06'1 0.6
2014-Dec-12 04:34N 40°39' W 074°05'2 2.1
2014-Dec-12 03:33N 40°38' W 074°08'0 0.0
2014-Dec-12 02:29N 40°38' W 074°08'0 0.0
2014-Dec-12 01:23N 40°38' W 074°08'0 0.0
2014-Dec-12 00:12N 40°38' W 074°08'0 0.0
2014-Dec-11 23:31N 40°38' W 074°08'0 0.0
2014-Dec-11 22:31N 40°38' W 074°08'  
Track history (hours):
 
Tides and Currents Weather Stations Pressure Air Temp Water Temp Dewpoint Dewpoint Depression Visibility Wind Speed Wind Dir Waves Ship Positions

Al Cenac

Owner: Caillou Island Towing Co, Inc., Houma, LA. More information available from US FCC via Universal Licensing System and Coast Guard Vessel Documentation Center.

Last reported at 2014-Dec-21 22:25 UTC. Time now 2014-Dec-21 23:08 UTC.
Position N 40°33' W 074°15'.

; draft 10 m.

MMSI: 367158530.

Date/timePositionNaut miles runAvg speedWind from/ knotsBaromVisibWave heightAir tempDewpointWater temp
2014-Dec-21 22:25N 40°33' W 074°15'3 1.6
2014-Dec-21 20:19N 40°36' W 074°12'2 3.0
2014-Dec-21 19:29N 40°38' W 074°12'4 0.9
2014-Dec-21 15:16N 40°39' W 074°07'6 8.3
2014-Dec-21 14:34N 40°41' W 074°00'5 4.6
2014-Dec-21 13:33N 40°45' W 073°57'5 4.3
2014-Dec-21 12:30N 40°42' W 074°00'4 4.2
2014-Dec-21 11:33N 40°45' W 073°58'1 0.4
2014-Dec-21 09:31N 40°46' W 073°57'6 5.7
2014-Dec-21 08:33N 40°41' W 074°02'5 2.6
2014-Dec-21 06:33N 40°39' W 074°08'2 0.5
2014-Dec-21 02:34N 40°39' W 074°10'7 5.8
2014-Dec-21 01:26N 40°33' W 074°15'2 2.3
2014-Dec-21 00:32N 40°31' W 074°15'9 2.9
2014-Dec-20 21:33N 40°39' W 074°09'1 0.2
2014-Dec-20 17:28N 40°38' W 074°08'0 0.0
2014-Dec-20 15:23N 40°38' W 074°08'0 0.1
2014-Dec-20 12:33N 40°39' W 074°07'4 1.4
2014-Dec-20 09:27N 40°36' W 074°12'4 1.0
2014-Dec-20 05:24N 40°38' W 074°08'2 0.5
2014-Dec-20 02:30N 40°39' W 074°10'7 7.6
2014-Dec-20 01:32N 40°33' W 074°15'8 1.1
2014-Dec-19 18:33N 40°39' W 074°09'1 0.4
2014-Dec-19 16:12N 40°38' W 074°08'0 0.0
2014-Dec-19 12:30N 40°38' W 074°08'0 0.0
2014-Dec-19 11:13N 40°38' W 074°08'0 0.0
2014-Dec-19 10:31N 40°38' W 074°08'4 2.0
2014-Dec-19 08:33N 40°40' W 074°03'7 7.3
2014-Dec-19 07:33N 40°46' W 073°57'0 0.0
2014-Dec-19 05:33N 40°46' W 073°57'4 4.1
2014-Dec-19 04:32N 40°42' W 073°60'1 0.9
2014-Dec-19 03:31N 40°41' W 074°00'0 0.0
2014-Dec-19 02:31N 40°41' W 074°00'1 1.5
2014-Dec-19 01:33N 40°43' W 073°59'6 4.5
2014-Dec-19 00:08N 40°48' W 073°54'4 6.4
2014-Dec-18 23:33N 40°45' W 073°58'8 8.3
2014-Dec-18 22:33N 40°39' W 074°05'3 1.0
2014-Dec-18 19:33N 40°38' W 074°09'2 0.4
2014-Dec-18 14:03N 40°38' W 074°12'3 0.8
2014-Dec-18 10:24N 40°38' W 074°08'0 0.0
2014-Dec-18 09:30N 40°38' W 074°08'0 0.0
2014-Dec-18 07:14N 40°39' W 074°08'0 0.7
2014-Dec-18 06:28N 40°39' W 074°07'4 4.5
2014-Dec-18 05:33N 40°37' W 074°12'4 2.0
2014-Dec-18 03:30N 40°33' W 074°14'5 1.5
2014-Dec-18 00:21N 40°38' W 074°12'3 3.8
2014-Dec-17 23:34N 40°39' W 074°08'0 0.3
2014-Dec-17 22:23N 40°38' W 074°08'2 2.0
2014-Dec-17 21:28N 40°39' W 074°05'4 4.5
2014-Dec-17 20:31N 40°39' W 074°11'2 2.5
2014-Dec-17 19:32N 40°38' W 074°08'0 0.0
2014-Dec-17 18:32N 40°38' W 074°08'4 4.0
2014-Dec-17 17:33N 40°40' W 074°03'17 0.9
2014-Dec-16 23:20N 40°56' W 073°55'6 7.6
2014-Dec-16 22:33N 40°50' W 073°58'8 7.7
2014-Dec-16 21:33N 40°43' W 074°01'7 4.8
2014-Dec-16 20:11N 40°38' W 074°08'0 0.1
2014-Dec-16 18:08N 40°38' W 074°08'2 1.9
2014-Dec-16 17:21N 40°38' W 074°10'2 1.6
2014-Dec-16 16:23N 40°38' W 074°08'0 0.0
2014-Dec-16 15:26N 40°38' W 074°08'4 4.3
2014-Dec-16 14:33N 40°37' W 074°12'4 3.2
2014-Dec-16 13:14N 40°33' W 074°15'7 0.4
2014-Dec-15 19:20N 40°38' W 074°09'0 0.4
2014-Dec-15 18:33N 40°38' W 074°09'1 0.6
2014-Dec-15 17:05N 40°38' W 074°08'0 0.0
2014-Dec-15 14:32N 40°38' W 074°08'1 0.5
2014-Dec-15 13:26N 40°39' W 074°07'0 0.1
2014-Dec-15 12:33N 40°39' W 074°07'0 0.3
2014-Dec-15 11:08N 40°38' W 074°08'0 0.0
2014-Dec-15 10:32N 40°38' W 074°08'0 0.0
2014-Dec-15 09:27N 40°38' W 074°08'1 0.5
2014-Dec-15 07:20N 40°39' W 074°07'1 0.6
2014-Dec-15 06:06N 40°39' W 074°06'4 7.5
2014-Dec-15 05:33N 40°39' W 074°11'6 0.9
2014-Dec-14 23:16N 40°33' W 074°14'6 8.4
2014-Dec-14 22:33N 40°39' W 074°10'0 0.4
2014-Dec-14 21:25N 40°39' W 074°10'2 0.6
2014-Dec-14 17:33N 40°39' W 074°07'5 5.2
2014-Dec-14 16:33N 40°40' W 074°00'1 1.2
2014-Dec-14 15:33N 40°41' W 074°01'7 7.1
2014-Dec-14 14:33N 40°47' W 073°56'2 1.5
2014-Dec-14 13:27N 40°48' W 073°54'1 0.8
2014-Dec-14 12:33N 40°47' W 073°55'6 6.4
2014-Dec-14 11:33N 40°42' W 073°60'1 0.9
2014-Dec-14 10:21N 40°41' W 074°00'0 0.0
2014-Dec-14 09:25N 40°41' W 074°00'0 0.0
2014-Dec-14 08:31N 40°41' W 074°00'0 0.0
2014-Dec-14 07:32N 40°41' W 074°00'0 0.0
2014-Dec-14 06:33N 40°41' W 074°00'0 0.0
2014-Dec-14 05:33N 40°41' W 074°00'0 0.0
2014-Dec-14 04:31N 40°41' W 074°00'0 0.0
2014-Dec-14 03:31N 40°41' W 074°00'0 0.0
2014-Dec-14 02:32N 40°41' W 074°00'0 0.0
2014-Dec-14 01:33N 40°41' W 074°00'0 0.0
2014-Dec-14 00:30N 40°41' W 074°00'0 0.0
2014-Dec-13 23:31N 40°41' W 074°00'0 0.0
2014-Dec-13 22:32N 40°41' W 074°00'0 0.0
2014-Dec-13 21:32N 40°41' W 074°00'8 3.8
2014-Dec-13 19:25N 40°48' W 073°54'5 5.9
2014-Dec-13 18:33N 40°44' W 073°58'3 3.1
2014-Dec-13 17:34N 40°41' W 074°00'6 2.7
2014-Dec-13 15:12N 40°38' W 074°08'0 0.0
2014-Dec-13 14:33N 40°38' W 074°08'4 3.5
2014-Dec-13 13:25N 40°42' W 074°07'2 2.8
2014-Dec-13 12:33N 40°40' W 074°08'2 1.6
2014-Dec-13 11:28N 40°38' W 074°08'0 0.0
2014-Dec-13 10:29N 40°38' W 074°08'0 0.0
2014-Dec-13 09:24N 40°38' W 074°08'0 0.0
2014-Dec-13 08:30N 40°38' W 074°08'0 0.0
2014-Dec-13 07:31N 40°38' W 074°08'0 0.0
2014-Dec-13 06:31N 40°38' W 074°08'0 0.0
2014-Dec-13 05:26N 40°38' W 074°08'0 0.0
2014-Dec-13 04:33N 40°38' W 074°08'0 0.0
2014-Dec-13 03:27N 40°38' W 074°08'0 0.0
2014-Dec-13 02:28N 40°38' W 074°08'0 0.0
2014-Dec-13 01:29N 40°38' W 074°08'0 0.0
2014-Dec-13 00:29N 40°38' W 074°08'0 0.0
2014-Dec-12 22:31N 40°38' W 074°08'0 0.0
2014-Dec-12 21:19N 40°38' W 074°08'0 0.0
2014-Dec-12 20:20N 40°38' W 074°08'2 1.8
2014-Dec-12 19:25N 40°39' W 074°10'2 1.5
2014-Dec-12 18:18N 40°38' W 074°08'1 1.3
2014-Dec-12 17:33N 40°38' W 074°09'3 3.4
2014-Dec-12 16:33N 40°39' W 074°05'2 2.3
2014-Dec-12 15:30N 40°38' W 074°08'0 0.0
2014-Dec-12 14:17N 40°38' W 074°08'0 0.0
2014-Dec-12 13:29N 40°38' W 074°08'0 0.0
2014-Dec-12 12:30N 40°38' W 074°08'0 0.0
2014-Dec-12 11:25N 40°38' W 074°08'1 0.6
2014-Dec-12 10:33N 40°39' W 074°07'1 0.6
2014-Dec-12 09:33N 40°39' W 074°06'1 0.6
2014-Dec-12 08:33N 40°39' W 074°06'0 0.0
2014-Dec-12 06:11N 40°39' W 074°06'0 0.0
2014-Dec-12 05:23N 40°39' W 074°06'1 0.6
2014-Dec-12 04:34N 40°39' W 074°05'2 2.1
2014-Dec-12 03:33N 40°38' W 074°08'0 0.0
2014-Dec-12 02:29N 40°38' W 074°08'0 0.0
2014-Dec-12 01:23N 40°38' W 074°08'0 0.0
2014-Dec-12 00:12N 40°38' W 074°08'0 0.0
2014-Dec-11 23:31N 40°38' W 074°08'0 0.0
2014-Dec-11 22:31N 40°38' W 074°08'  

Dump ship's entire track history